AEA315 LPPR-LEZL
Flight info
| Callsign | AEA315 |
|---|---|
| Flight time | 0h 52m |
| Altitude | 37000 |
| Route | PESUL DCT DIGAL DCT LASIB DCT ROSAL M744 SANTA |
| Aircraft | B738/M-SDE2E3FGHIRWXY/LB1 |
Departure
| Time | 2026-03-25 16:31 |
|---|---|
| Airport | Francisco de Sá Carneiro Airport (LPPR) |
Arrival
| Time | 2026-03-25 17:24 |
|---|---|
| Airport | Seville Airport (LEZL) |
| Time | Latitude | Longitude | Altitude | Speed | Heading |
|---|---|---|---|---|---|
| 2026-03-25 16:14 | 41.23461 | -8.67477 | 264 ft | 0 kts | 259° |
| 2026-03-25 16:25 | 41.23464 | -8.67458 | 264 ft | 3 kts | 257° |
| 2026-03-25 16:25 | 41.23469 | -8.67433 | 263 ft | 3 kts | 251° |
| 2026-03-25 16:25 | 41.23476 | -8.67408 | 262 ft | 3 kts | 235° |
| 2026-03-25 16:26 | 41.23488 | -8.67391 | 262 ft | 3 kts | 196° |
| 2026-03-25 16:26 | 41.23498 | -8.67389 | 262 ft | 1 kts | 170° |
| 2026-03-25 16:28 | 41.23496 | -8.67388 | 261 ft | 1 kts | 170° |
| 2026-03-25 16:28 | 41.23456 | -8.67379 | 261 ft | 11 kts | 169° |
| 2026-03-25 16:29 | 41.23361 | -8.67374 | 262 ft | 13 kts | 202° |
| 2026-03-25 16:29 | 41.23337 | -8.67417 | 264 ft | 1 kts | 253° |
| 2026-03-25 16:29 | 41.23334 | -8.67430 | 264 ft | 1 kts | 257° |
| 2026-03-25 16:29 | 41.23332 | -8.67441 | 265 ft | 1 kts | 257° |
| 2026-03-25 16:30 | 41.23327 | -8.67472 | 266 ft | 9 kts | 258° |
| 2026-03-25 16:30 | 41.23308 | -8.67596 | 273 ft | 17 kts | 258° |
| 2026-03-25 16:30 | 41.23328 | -8.67738 | 276 ft | 15 kts | 323° |
| 2026-03-25 16:30 | 41.23517 | -8.67791 | 267 ft | 61 kts | 349° |
| 2026-03-25 16:31 | 41.24214 | -8.67973 | 249 ft | 139 kts | 349° |
| 2026-03-25 16:31 | 41.25271 | -8.68242 | 804 ft | 149 kts | 348° |
| 2026-03-25 16:31 | 41.26238 | -8.68468 | 880 ft | 161 kts | 350° |
| 2026-03-25 16:31 | 41.27507 | -8.68721 | 1521 ft | 193 kts | 351° |
| 2026-03-25 16:32 | 41.28823 | -8.69014 | 2690 ft | 194 kts | 349° |
| 2026-03-25 16:32 | 41.30161 | -8.69407 | 3476 ft | 204 kts | 348° |
| 2026-03-25 16:32 | 41.31631 | -8.69844 | 3734 ft | 226 kts | 349° |
| 2026-03-25 16:32 | 41.33218 | -8.70315 | 4272 ft | 236 kts | 349° |
| 2026-03-25 16:33 | 41.34855 | -8.70794 | 4937 ft | 243 kts | 350° |
| 2026-03-25 16:33 | 41.36496 | -8.71265 | 5650 ft | 246 kts | 350° |
| 2026-03-25 16:33 | 41.38163 | -8.71737 | 6492 ft | 245 kts | 349° |
| 2026-03-25 16:33 | 41.39873 | -8.71817 | 7174 ft | 254 kts | 13° |
| 2026-03-25 16:34 | 41.41500 | -8.70780 | 7765 ft | 268 kts | 38° |
| 2026-03-25 16:34 | 41.42755 | -8.68928 | 8561 ft | 274 kts | 58° |
| 2026-03-25 16:34 | 41.43415 | -8.66498 | 9399 ft | 283 kts | 76° |
| 2026-03-25 16:34 | 41.43801 | -8.63897 | 10221 ft | 288 kts | 77° |
| 2026-03-25 16:35 | 41.43849 | -8.61188 | 10604 ft | 313 kts | 100° |
| 2026-03-25 16:35 | 41.42875 | -8.58463 | 10851 ft | 342 kts | 125° |
| 2026-03-25 16:35 | 41.41251 | -8.56060 | 11403 ft | 356 kts | 137° |
| 2026-03-25 16:35 | 41.39223 | -8.54096 | 12092 ft | 363 kts | 145° |
| 2026-03-25 16:36 | 41.37067 | -8.52279 | 12858 ft | 368 kts | 146° |
| 2026-03-25 16:36 | 41.34868 | -8.50489 | 13564 ft | 373 kts | 146° |
| 2026-03-25 16:36 | 41.32634 | -8.48670 | 14230 ft | 379 kts | 146° |
| 2026-03-25 16:36 | 41.30382 | -8.46819 | 14919 ft | 382 kts | 146° |
| 2026-03-25 16:37 | 41.28118 | -8.44941 | 15624 ft | 384 kts | 145° |
| 2026-03-25 16:37 | 41.25836 | -8.43033 | 16293 ft | 388 kts | 145° |
| 2026-03-25 16:37 | 41.23545 | -8.41108 | 16973 ft | 391 kts | 144° |
| 2026-03-25 16:37 | 41.21233 | -8.39163 | 17646 ft | 394 kts | 144° |
| 2026-03-25 16:38 | 41.19004 | -8.37286 | 18260 ft | 398 kts | 144° |
| 2026-03-25 16:38 | 41.16651 | -8.35306 | 18857 ft | 401 kts | 144° |
| 2026-03-25 16:38 | 41.14246 | -8.33382 | 19401 ft | 408 kts | 150° |
| 2026-03-25 16:38 | 41.11572 | -8.32022 | 19948 ft | 415 kts | 161° |
| 2026-03-25 16:39 | 41.08776 | -8.30990 | 20557 ft | 417 kts | 162° |
| 2026-03-25 16:39 | 41.05958 | -8.29983 | 21134 ft | 420 kts | 163° |
| 2026-03-25 16:39 | 41.03115 | -8.28970 | 21710 ft | 423 kts | 162° |
| 2026-03-25 16:39 | 41.00303 | -8.27957 | 22278 ft | 425 kts | 162° |
| 2026-03-25 16:40 | 40.97434 | -8.26912 | 22815 ft | 428 kts | 162° |
| 2026-03-25 16:40 | 40.94546 | -8.25850 | 23328 ft | 431 kts | 162° |
| 2026-03-25 16:40 | 40.91645 | -8.24777 | 23814 ft | 435 kts | 162° |
| 2026-03-25 16:40 | 40.88716 | -8.23691 | 24235 ft | 438 kts | 162° |
| 2026-03-25 16:41 | 40.85768 | -8.22597 | 24690 ft | 440 kts | 162° |
| 2026-03-25 16:41 | 40.82808 | -8.21499 | 25149 ft | 442 kts | 162° |
| 2026-03-25 16:41 | 40.79839 | -8.20398 | 25570 ft | 445 kts | 162° |
| 2026-03-25 16:41 | 40.76880 | -8.19302 | 25971 ft | 447 kts | 162° |
| 2026-03-25 16:42 | 40.73881 | -8.18192 | 26394 ft | 449 kts | 162° |
| 2026-03-25 16:42 | 40.70860 | -8.17076 | 26779 ft | 452 kts | 162° |
| 2026-03-25 16:42 | 40.67809 | -8.15949 | 27156 ft | 455 kts | 162° |
| 2026-03-25 16:42 | 40.64756 | -8.14823 | 27561 ft | 457 kts | 163° |
| 2026-03-25 16:43 | 40.61686 | -8.13692 | 28046 ft | 456 kts | 162° |
| 2026-03-25 16:43 | 40.58633 | -8.12569 | 28646 ft | 453 kts | 163° |
| 2026-03-25 16:43 | 40.55603 | -8.11455 | 29209 ft | 451 kts | 163° |
| 2026-03-25 16:43 | 40.52612 | -8.10356 | 29695 ft | 451 kts | 163° |
| 2026-03-25 16:44 | 40.49588 | -8.09246 | 30182 ft | 450 kts | 163° |
| 2026-03-25 16:44 | 40.46573 | -8.08139 | 30625 ft | 449 kts | 163° |
| 2026-03-25 16:44 | 40.43571 | -8.07038 | 31060 ft | 448 kts | 163° |
| 2026-03-25 16:45 | 40.37501 | -8.04816 | 31129 ft | 457 kts | 163° |
| 2026-03-25 16:45 | 40.31301 | -8.02551 | 31284 ft | 472 kts | 163° |
| 2026-03-25 16:45 | 40.28121 | -8.01392 | 31426 ft | 476 kts | 163° |
| 2026-03-25 16:46 | 40.24914 | -8.00224 | 31695 ft | 477 kts | 163° |
| 2026-03-25 16:46 | 40.21717 | -7.99061 | 32111 ft | 475 kts | 163° |
| 2026-03-25 16:46 | 40.18544 | -7.97908 | 32584 ft | 471 kts | 163° |
| 2026-03-25 16:46 | 40.15437 | -7.96779 | 33060 ft | 467 kts | 163° |
| 2026-03-25 16:47 | 40.12290 | -7.95638 | 33089 ft | 471 kts | 163° |
| 2026-03-25 16:47 | 40.06079 | -7.93387 | 33087 ft | 455 kts | 163° |
| 2026-03-25 16:48 | 40.00006 | -7.91191 | 33098 ft | 451 kts | 163° |
| 2026-03-25 16:48 | 39.93956 | -7.89006 | 33098 ft | 451 kts | 163° |
| 2026-03-25 16:49 | 39.87938 | -7.86836 | 33100 ft | 451 kts | 163° |
| 2026-03-25 16:49 | 39.81880 | -7.84657 | 33094 ft | 451 kts | 163° |
| 2026-03-25 16:50 | 39.75823 | -7.82482 | 33099 ft | 451 kts | 163° |
| 2026-03-25 16:50 | 39.69805 | -7.80325 | 33087 ft | 451 kts | 163° |
| 2026-03-25 16:51 | 39.63748 | -7.78158 | 33087 ft | 450 kts | 163° |
| 2026-03-25 16:51 | 39.58733 | -7.76366 | 33091 ft | 449 kts | 163° |
| 2026-03-25 16:52 | 39.51714 | -7.73864 | 33088 ft | 449 kts | 163° |
| 2026-03-25 16:52 | 39.46669 | -7.72068 | 33090 ft | 448 kts | 163° |
| 2026-03-25 16:53 | 39.40699 | -7.69946 | 33085 ft | 447 kts | 163° |
| 2026-03-25 16:53 | 39.34690 | -7.67815 | 33091 ft | 446 kts | 163° |
| 2026-03-25 16:54 | 39.28699 | -7.65694 | 33096 ft | 446 kts | 163° |
| 2026-03-25 16:54 | 39.22719 | -7.63580 | 33094 ft | 445 kts | 163° |
| 2026-03-25 16:55 | 39.16733 | -7.61468 | 33083 ft | 445 kts | 163° |
| 2026-03-25 16:55 | 39.10753 | -7.59362 | 33090 ft | 445 kts | 163° |
| 2026-03-25 16:56 | 39.04785 | -7.57264 | 33097 ft | 445 kts | 162° |
| 2026-03-25 16:56 | 38.98841 | -7.55178 | 33081 ft | 444 kts | 162° |
| 2026-03-25 16:57 | 38.92872 | -7.53086 | 33093 ft | 444 kts | 162° |
| 2026-03-25 16:57 | 38.86904 | -7.50999 | 33105 ft | 444 kts | 162° |
| 2026-03-25 16:58 | 38.80928 | -7.48912 | 33086 ft | 444 kts | 162° |
| 2026-03-25 16:58 | 38.74988 | -7.46843 | 32895 ft | 438 kts | 162° |
| 2026-03-25 16:58 | 38.72063 | -7.45827 | 32590 ft | 430 kts | 161° |
| 2026-03-25 16:59 | 38.69225 | -7.44841 | 32170 ft | 426 kts | 161° |
| 2026-03-25 16:59 | 38.66366 | -7.43847 | 31787 ft | 423 kts | 161° |
| 2026-03-25 16:59 | 38.63540 | -7.42865 | 31392 ft | 420 kts | 161° |
| 2026-03-25 16:59 | 38.60724 | -7.41886 | 30998 ft | 417 kts | 160° |
| 2026-03-25 17:00 | 38.57923 | -7.40914 | 30603 ft | 415 kts | 160° |
| 2026-03-25 17:00 | 38.55172 | -7.39960 | 30216 ft | 413 kts | 160° |
| 2026-03-25 17:00 | 38.52408 | -7.39003 | 29763 ft | 410 kts | 160° |
| 2026-03-25 17:00 | 38.49658 | -7.38053 | 29318 ft | 407 kts | 160° |
| 2026-03-25 17:01 | 38.46920 | -7.37109 | 28896 ft | 404 kts | 160° |
| 2026-03-25 17:01 | 38.44206 | -7.36172 | 28493 ft | 401 kts | 160° |
| 2026-03-25 17:01 | 38.41521 | -7.35246 | 28087 ft | 398 kts | 160° |
| 2026-03-25 17:01 | 38.38848 | -7.34325 | 27693 ft | 396 kts | 159° |
| 2026-03-25 17:02 | 38.36234 | -7.33424 | 27292 ft | 393 kts | 159° |
| 2026-03-25 17:02 | 38.33597 | -7.32516 | 26901 ft | 391 kts | 159° |
| 2026-03-25 17:02 | 38.30975 | -7.31613 | 26508 ft | 388 kts | 159° |
| 2026-03-25 17:02 | 38.28367 | -7.30717 | 26122 ft | 386 kts | 159° |
| 2026-03-25 17:03 | 38.25771 | -7.29825 | 25732 ft | 385 kts | 159° |
| 2026-03-25 17:03 | 38.23223 | -7.28950 | 25347 ft | 383 kts | 159° |
| 2026-03-25 17:03 | 38.20648 | -7.28067 | 25104 ft | 378 kts | 159° |
| 2026-03-25 17:03 | 38.18144 | -7.27211 | 25083 ft | 368 kts | 159° |
| 2026-03-25 17:04 | 38.15707 | -7.26379 | 25068 ft | 357 kts | 158° |
| 2026-03-25 17:04 | 38.13335 | -7.25568 | 25058 ft | 345 kts | 158° |
| 2026-03-25 17:04 | 38.11061 | -7.24791 | 25061 ft | 332 kts | 158° |
| 2026-03-25 17:04 | 38.08869 | -7.24044 | 25057 ft | 320 kts | 158° |
| 2026-03-25 17:05 | 38.06781 | -7.23326 | 25058 ft | 308 kts | 154° |
| 2026-03-25 17:05 | 38.04981 | -7.22093 | 25083 ft | 287 kts | 127° |
| 2026-03-25 17:05 | 38.03777 | -7.20078 | 25098 ft | 289 kts | 109° |
| 2026-03-25 17:05 | 38.03112 | -7.17646 | 25032 ft | 297 kts | 96° |
| 2026-03-25 17:06 | 38.02751 | -7.15021 | 24626 ft | 306 kts | 93° |
| 2026-03-25 17:06 | 38.02434 | -7.12322 | 24096 ft | 314 kts | 94° |
| 2026-03-25 17:06 | 38.01888 | -7.09594 | 23638 ft | 323 kts | 104° |
| 2026-03-25 17:06 | 38.00932 | -7.07022 | 23235 ft | 327 kts | 112° |
| 2026-03-25 17:07 | 37.99837 | -7.04506 | 22921 ft | 324 kts | 113° |
| 2026-03-25 17:07 | 37.98736 | -7.02022 | 22557 ft | 322 kts | 113° |
| 2026-03-25 17:07 | 37.97639 | -6.99542 | 22156 ft | 322 kts | 113° |
| 2026-03-25 17:07 | 37.96544 | -6.97061 | 21817 ft | 320 kts | 113° |
| 2026-03-25 17:08 | 37.95477 | -6.94634 | 21498 ft | 318 kts | 113° |
| 2026-03-25 17:08 | 37.94407 | -6.92195 | 21181 ft | 316 kts | 113° |
| 2026-03-25 17:08 | 37.93342 | -6.89763 | 20827 ft | 314 kts | 113° |
| 2026-03-25 17:08 | 37.92283 | -6.87347 | 20507 ft | 312 kts | 113° |
| 2026-03-25 17:09 | 37.91227 | -6.84933 | 20117 ft | 313 kts | 113° |
| 2026-03-25 17:09 | 37.90168 | -6.82514 | 19723 ft | 314 kts | 114° |
| 2026-03-25 17:09 | 37.89108 | -6.80092 | 19306 ft | 315 kts | 114° |
| 2026-03-25 17:09 | 37.88046 | -6.77669 | 18900 ft | 314 kts | 114° |
| 2026-03-25 17:10 | 37.86999 | -6.75284 | 18538 ft | 314 kts | 114° |
| 2026-03-25 17:10 | 37.85934 | -6.72857 | 18108 ft | 315 kts | 114° |
| 2026-03-25 17:10 | 37.84868 | -6.70431 | 17683 ft | 316 kts | 115° |
| 2026-03-25 17:10 | 37.83798 | -6.67997 | 17229 ft | 317 kts | 115° |
| 2026-03-25 17:11 | 37.82733 | -6.65578 | 16788 ft | 313 kts | 115° |
| 2026-03-25 17:11 | 37.81672 | -6.63169 | 16351 ft | 310 kts | 115° |
| 2026-03-25 17:11 | 37.80627 | -6.60799 | 15918 ft | 307 kts | 115° |
| 2026-03-25 17:11 | 37.79593 | -6.58454 | 15499 ft | 304 kts | 116° |
| 2026-03-25 17:12 | 37.78579 | -6.56158 | 15090 ft | 301 kts | 116° |
| 2026-03-25 17:12 | 37.77561 | -6.53853 | 14688 ft | 298 kts | 116° |
| 2026-03-25 17:12 | 37.76550 | -6.51565 | 14284 ft | 296 kts | 116° |
| 2026-03-25 17:12 | 37.75548 | -6.49297 | 13885 ft | 295 kts | 117° |
| 2026-03-25 17:13 | 37.74550 | -6.47041 | 13449 ft | 293 kts | 117° |
| 2026-03-25 17:13 | 37.73558 | -6.44801 | 13009 ft | 291 kts | 117° |
| 2026-03-25 17:13 | 37.72573 | -6.42578 | 12572 ft | 289 kts | 117° |
| 2026-03-25 17:13 | 37.71592 | -6.40363 | 12147 ft | 287 kts | 117° |
| 2026-03-25 17:14 | 37.70623 | -6.38179 | 11740 ft | 289 kts | 117° |
| 2026-03-25 17:14 | 37.69636 | -6.35954 | 11365 ft | 291 kts | 117° |
| 2026-03-25 17:14 | 37.68662 | -6.33766 | 11261 ft | 279 kts | 117° |
| 2026-03-25 17:14 | 37.67718 | -6.31643 | 10922 ft | 276 kts | 117° |
| 2026-03-25 17:15 | 37.66778 | -6.29533 | 10512 ft | 275 kts | 117° |
| 2026-03-25 17:15 | 37.65833 | -6.27427 | 10113 ft | 274 kts | 117° |
| 2026-03-25 17:15 | 37.64892 | -6.25340 | 9724 ft | 272 kts | 117° |
| 2026-03-25 17:15 | 37.63960 | -6.23273 | 9315 ft | 270 kts | 117° |
| 2026-03-25 17:16 | 37.63043 | -6.21240 | 8886 ft | 269 kts | 117° |
| 2026-03-25 17:16 | 37.62113 | -6.19179 | 8377 ft | 272 kts | 117° |
| 2026-03-25 17:16 | 37.61175 | -6.17100 | 7875 ft | 272 kts | 117° |
| 2026-03-25 17:16 | 37.60241 | -6.15033 | 7392 ft | 271 kts | 117° |
| 2026-03-25 17:17 | 37.59145 | -6.13108 | 6933 ft | 272 kts | 137° |
| 2026-03-25 17:17 | 37.57474 | -6.12085 | 6781 ft | 264 kts | 167° |
| 2026-03-25 17:17 | 37.55681 | -6.12034 | 6666 ft | 253 kts | 187° |
| 2026-03-25 17:17 | 37.54042 | -6.12610 | 6486 ft | 245 kts | 195° |
| 2026-03-25 17:18 | 37.52392 | -6.13321 | 5889 ft | 254 kts | 196° |
| 2026-03-25 17:18 | 37.50688 | -6.13970 | 5391 ft | 255 kts | 193° |
| 2026-03-25 17:18 | 37.48962 | -6.14484 | 4874 ft | 255 kts | 190° |
| 2026-03-25 17:18 | 37.47206 | -6.14894 | 4334 ft | 259 kts | 188° |
| 2026-03-25 17:19 | 37.45409 | -6.15213 | 3779 ft | 260 kts | 185° |
| 2026-03-25 17:19 | 37.43642 | -6.15049 | 3206 ft | 253 kts | 157° |
| 2026-03-25 17:19 | 37.42319 | -6.13719 | 2653 ft | 241 kts | 120° |
| 2026-03-25 17:19 | 37.41868 | -6.11794 | 2176 ft | 223 kts | 95° |
| 2026-03-25 17:20 | 37.41771 | -6.09973 | 2033 ft | 200 kts | 91° |
| 2026-03-25 17:20 | 37.41748 | -6.08312 | 1998 ft | 181 kts | 90° |
| 2026-03-25 17:20 | 37.41750 | -6.06757 | 1981 ft | 172 kts | 89° |
| 2026-03-25 17:20 | 37.41752 | -6.05316 | 1996 ft | 158 kts | 88° |
| 2026-03-25 17:21 | 37.41755 | -6.04005 | 2002 ft | 148 kts | 88° |
| 2026-03-25 17:21 | 37.41759 | -6.02700 | 1863 ft | 149 kts | 89° |
| 2026-03-25 17:21 | 37.41761 | -6.01402 | 1669 ft | 148 kts | 88° |
| 2026-03-25 17:21 | 37.41763 | -6.00113 | 1493 ft | 147 kts | 88° |
| 2026-03-25 17:22 | 37.41768 | -5.98827 | 1260 ft | 143 kts | 89° |
| 2026-03-25 17:22 | 37.41769 | -5.97602 | 1093 ft | 140 kts | 87° |
| 2026-03-25 17:22 | 37.41779 | -5.96361 | 907 ft | 144 kts | 89° |
| 2026-03-25 17:22 | 37.41780 | -5.95065 | 676 ft | 149 kts | 90° |
| 2026-03-25 17:23 | 37.41783 | -5.93756 | 533 ft | 150 kts | 90° |
| 2026-03-25 17:23 | 37.41783 | -5.92457 | 332 ft | 147 kts | 90° |
| 2026-03-25 17:23 | 37.41790 | -5.91189 | 140 ft | 143 kts | 90° |
| 2026-03-25 17:23 | 37.41791 | -5.90005 | 94 ft | 121 kts | 90° |
| 2026-03-25 17:24 | 37.41796 | -5.89149 | 95 ft | 77 kts | 89° |
| 2026-03-25 17:24 | 37.41805 | -5.88706 | 103 ft | 33 kts | 92° |
| 2026-03-25 17:24 | 37.41799 | -5.88424 | 107 ft | 31 kts | 91° |
| 2026-03-25 17:24 | 37.41799 | -5.88162 | 105 ft | 29 kts | 89° |
| 2026-03-25 17:25 | 37.41801 | -5.87914 | 106 ft | 27 kts | 91° |
| 2026-03-25 17:25 | 37.41800 | -5.87683 | 105 ft | 26 kts | 89° |
| 2026-03-25 17:25 | 37.41827 | -5.87473 | 106 ft | 24 kts | 56° |
| 2026-03-25 17:25 | 37.41960 | -5.87466 | 105 ft | 23 kts | 305° |
| 2026-03-25 17:26 | 37.41985 | -5.87655 | 105 ft | 22 kts | 269° |
| 2026-03-25 17:26 | 37.41987 | -5.87845 | 104 ft | 21 kts | 270° |
| 2026-03-25 17:26 | 37.41987 | -5.88030 | 105 ft | 21 kts | 269° |
| 2026-03-25 17:27 | 37.41986 | -5.88383 | 107 ft | 20 kts | 270° |
| 2026-03-25 17:27 | 37.41984 | -5.88550 | 106 ft | 19 kts | 269° |
| 2026-03-25 17:27 | 37.41984 | -5.88712 | 106 ft | 18 kts | 271° |
| 2026-03-25 17:27 | 37.41984 | -5.88878 | 101 ft | 20 kts | 270° |
| 2026-03-25 17:28 | 37.41983 | -5.89061 | 97 ft | 21 kts | 270° |
| 2026-03-25 17:28 | 37.41983 | -5.89241 | 95 ft | 20 kts | 269° |
| 2026-03-25 17:28 | 37.42005 | -5.89385 | 92 ft | 16 kts | 311° |
| 2026-03-25 17:28 | 37.42079 | -5.89481 | 93 ft | 15 kts | 314° |
| 2026-03-25 17:29 | 37.42148 | -5.89575 | 94 ft | 14 kts | 315° |
| 2026-03-25 17:29 | 37.42217 | -5.89658 | 94 ft | 13 kts | 315° |
| 2026-03-25 17:29 | 37.42291 | -5.89717 | 95 ft | 13 kts | 9° |
| 2026-03-25 17:29 | 37.42359 | -5.89647 | 95 ft | 11 kts | 45° |
| 2026-03-25 17:30 | 37.42393 | -5.89606 | 95 ft | 3 kts | 42° |
| 2026-03-25 17:30 | 37.42395 | -5.89603 | 95 ft | 0 kts | 43° |